Time,TemperatureF,DewpointF,PressureIn,WindDirection,WindDirectionDegrees,WindSpeedMPH,WindSpeedGustMPH,Humidity,HourlyPrecipIn,Conditions,Clouds,dailyrainin,SolarRadiationWatts/m^2,SoftwareType,DateUTC
2013-08-05 00:02:00,60.0,55.0,-100.00,ENE,75,12.0,16.0,85,0.00,,,0.00,1.000000,,2013-08-05 06:02:00,
2013-08-05 00:12:00,60.0,55.0,-100.00,ENE,75,12.0,16.0,85,0.00,,,0.00,1.000000,,2013-08-05 06:12:00,
2013-08-05 00:43:00,60.0,56.0,-100.00,ENE,74,16.0,22.0,87,0.00,,,-99.99,1.000000,,2013-08-05 06:43:00,
2013-08-05 00:52:00,60.0,56.0,-100.00,ENE,74,16.0,22.0,87,0.00,,,-99.99,1.000000,,2013-08-05 06:52:00,
2013-08-05 01:02:00,60.0,56.0,-100.00,ENE,74,16.0,22.0,87,0.00,,,-99.99,1.000000,,2013-08-05 07:02:00,
2013-08-05 01:12:00,60.0,56.0,-100.00,ENE,74,16.0,22.0,87,0.00,,,-99.99,1.000000,,2013-08-05 07:12:00,
2013-08-05 01:43:00,59.0,54.0,-100.00,East,83,10.0,20.0,85,0.00,,,0.00,1.000000,,2013-08-05 07:43:00,
2013-08-05 01:53:00,59.0,54.0,-100.00,East,83,10.0,20.0,85,0.00,,,0.00,1.000000,,2013-08-05 07:53:00,
2013-08-05 02:02:00,59.0,54.0,-100.00,East,83,10.0,20.0,85,0.00,,,0.00,1.000000,,2013-08-05 08:02:00,
2013-08-05 02:12:00,59.0,54.0,-100.00,East,83,10.0,20.0,85,0.00,,,0.00,1.000000,,2013-08-05 08:12:00,
2013-08-05 02:15:00,58.0,55.0,-100.00,East,82,8.0,12.0,89,0.00,,,0.00,1.000000,,2013-08-05 08:15:00,
2013-08-05 02:54:00,58.0,55.0,-100.00,East,82,8.0,12.0,89,0.00,,,0.00,1.000000,,2013-08-05 08:54:00,
2013-08-05 03:06:00,58.0,55.0,-100.00,East,82,8.0,12.0,89,0.00,,,0.00,1.000000,,2013-08-05 09:06:00,
2013-08-05 03:47:00,56.0,54.0,-100.00,North,3,2.0,9.0,92,0.00,,,0.00,1.000000,,2013-08-05 09:47:00,
2013-08-05 03:53:00,56.0,54.0,-100.00,North,3,2.0,9.0,92,0.00,,,0.00,1.000000,,2013-08-05 09:53:00,
2013-08-05 04:08:00,56.0,54.0,-100.00,North,3,2.0,9.0,92,0.00,,,0.00,1.000000,,2013-08-05 10:08:00,
2013-08-05 04:14:00,56.0,54.0,-100.00,North,3,2.0,9.0,92,0.00,,,0.00,1.000000,,2013-08-05 10:14:00,
2013-08-05 04:49:00,57.0,53.0,-100.00,NE,51,6.0,8.0,88,0.00,,,0.00,1.000000,,2013-08-05 10:49:00,
2013-08-05 05:07:00,57.0,53.0,-100.00,NE,51,6.0,8.0,88,0.00,,,0.00,1.000000,,2013-08-05 11:07:00,
2013-08-05 05:14:00,57.0,53.0,-100.00,NE,51,6.0,8.0,88,0.00,,,0.00,1.000000,,2013-08-05 11:14:00,
2013-08-05 05:15:00,56.0,53.0,-100.00,NE,47,3.0,7.0,90,0.00,,,0.00,1.000000,,2013-08-05 11:15:00,
2013-08-05 05:53:00,56.0,53.0,-100.00,NE,47,3.0,7.0,90,0.00,,,0.00,1.000000,,2013-08-05 11:53:00,
2013-08-05 05:58:00,56.0,53.0,-100.00,NE,47,3.0,7.0,90,0.00,,,0.00,1.000000,,2013-08-05 11:58:00,
2013-08-05 06:06:00,56.0,53.0,-100.00,NE,47,3.0,7.0,90,0.00,,,0.00,1.000000,,2013-08-05 12:06:00,
2013-08-05 06:52:00,55.0,53.0,-100.00,East,80,6.0,7.0,94,0.00,,,0.00,1.000000,,2013-08-05 12:52:00,
2013-08-05 07:00:00,55.0,53.0,-100.00,East,80,6.0,7.0,94,0.00,,,0.00,1.000000,,2013-08-05 13:00:00,
2013-08-05 07:13:00,55.0,53.0,-100.00,East,80,6.0,7.0,94,0.00,,,0.00,1.000000,,2013-08-05 13:13:00,
2013-08-05 07:15:00,58.0,55.0,-100.00,ENE,78,4.0,7.0,91,0.00,,,0.00,32.000000,,2013-08-05 13:15:00,
2013-08-05 07:46:00,58.0,55.0,-100.00,ENE,78,4.0,7.0,91,0.00,,,0.00,32.000000,,2013-08-05 13:46:00,
2013-08-05 07:54:00,58.0,55.0,-100.00,ENE,78,4.0,7.0,91,0.00,,,0.00,32.000000,,2013-08-05 13:54:00,
2013-08-05 08:06:00,58.0,55.0,-100.00,ENE,78,4.0,7.0,91,0.00,,,0.00,32.000000,,2013-08-05 14:06:00,
2013-08-05 08:48:00,64.0,54.0,-100.00,East,85,9.0,13.0,71,0.00,,,0.00,201.000000,,2013-08-05 14:48:00,
2013-08-05 08:53:00,64.0,54.0,-100.00,East,85,9.0,13.0,71,0.00,,,0.00,201.000000,,2013-08-05 14:53:00,
2013-08-05 09:07:00,64.0,54.0,-100.00,East,85,9.0,13.0,71,0.00,,,0.00,201.000000,,2013-08-05 15:07:00,
2013-08-05 09:13:00,64.0,54.0,-100.00,East,85,9.0,13.0,71,0.00,,,0.00,201.000000,,2013-08-05 15:13:00,
2013-08-05 09:15:00,68.0,55.0,-100.00,NNW,333,4.0,10.0,64,0.00,,,0.00,430.000000,,2013-08-05 15:15:00,
2013-08-05 09:50:00,68.0,55.0,-100.00,NNW,333,4.0,10.0,64,0.00,,,0.00,430.000000,,2013-08-05 15:50:00,
2013-08-05 09:58:00,68.0,55.0,-100.00,NNW,333,4.0,10.0,64,0.00,,,0.00,430.000000,,2013-08-05 15:58:00,
2013-08-05 10:15:00,72.0,55.0,-100.00,WSW,241,3.0,6.0,55,0.00,,,0.00,633.000000,,2013-08-05 16:15:00,
2013-08-05 10:45:00,72.0,55.0,-100.00,WSW,241,3.0,6.0,55,0.00,,,0.00,633.000000,,2013-08-05 16:45:00,
2013-08-05 11:00:00,72.0,55.0,-100.00,WSW,241,3.0,6.0,55,0.00,,,0.00,633.000000,,2013-08-05 17:00:00,
2013-08-05 11:05:00,72.0,55.0,-100.00,WSW,241,3.0,6.0,55,0.00,,,0.00,633.000000,,2013-08-05 17:05:00,
2013-08-05 11:50:00,75.0,54.0,-100.00,SW,234,6.0,11.0,48,0.00,,,0.00,477.000000,,2013-08-05 17:50:00,
2013-08-05 12:00:00,75.0,54.0,-100.00,SW,234,6.0,11.0,48,0.00,,,0.00,477.000000,,2013-08-05 18:00:00,
2013-08-05 12:07:00,75.0,54.0,-100.00,SW,234,6.0,11.0,48,0.00,,,0.00,477.000000,,2013-08-05 18:07:00,
2013-08-05 12:13:00,75.0,54.0,-100.00,SW,234,6.0,11.0,48,0.00,,,0.00,477.000000,,2013-08-05 18:13:00,
2013-08-05 12:45:00,78.0,49.0,-100.00,SW,219,4.0,11.0,36,0.00,,,0.00,983.000000,,2013-08-05 18:45:00,
2013-08-05 12:54:00,78.0,49.0,-100.00,SW,219,4.0,11.0,36,0.00,,,0.00,983.000000,,2013-08-05 18:54:00,
2013-08-05 13:05:00,78.0,49.0,-100.00,SW,219,4.0,11.0,36,0.00,,,0.00,983.000000,,2013-08-05 19:05:00,
2013-08-05 13:14:00,78.0,49.0,-100.00,SW,219,4.0,11.0,36,0.00,,,0.00,983.000000,,2013-08-05 19:14:00,
2013-08-05 13:15:00,80.0,47.0,-100.00,WNW,284,8.0,14.0,31,0.00,,,0.00,1092.000000,,2013-08-05 19:15:00,
2013-08-05 13:53:00,80.0,47.0,-100.00,WNW,284,8.0,14.0,31,0.00,,,0.00,1092.000000,,2013-08-05 19:53:00,
2013-08-05 14:15:00,82.0,47.0,-100.00,West,268,11.0,18.0,29,0.00,,,0.00,1108.000000,,2013-08-05 20:15:00,
2013-08-05 14:48:00,82.0,47.0,-100.00,West,268,11.0,18.0,29,0.00,,,0.00,1108.000000,,2013-08-05 20:48:00,
2013-08-05 15:00:00,82.0,47.0,-100.00,West,268,11.0,18.0,29,0.00,,,0.00,1108.000000,,2013-08-05 21:00:00,
2013-08-05 15:05:00,82.0,47.0,-100.00,West,268,11.0,18.0,29,0.00,,,0.00,1108.000000,,2013-08-05 21:05:00,
2013-08-05 15:48:00,83.0,44.0,-100.00,West,262,7.0,18.0,25,0.00,,,0.00,1079.000000,,2013-08-05 21:48:00,
2013-08-05 15:54:00,83.0,44.0,-100.00,West,262,7.0,18.0,25,0.00,,,0.00,1079.000000,,2013-08-05 21:54:00,
2013-08-05 16:05:00,83.0,44.0,-100.00,West,262,7.0,18.0,25,0.00,,,0.00,1079.000000,,2013-08-05 22:05:00,
2013-08-05 16:13:00,83.0,44.0,-100.00,West,262,7.0,18.0,25,0.00,,,0.00,1079.000000,,2013-08-05 22:13:00,
2013-08-05 16:53:00,85.0,43.0,-100.00,WSW,239,9.0,18.0,23,0.00,,,0.00,997.000000,,2013-08-05 22:53:00,
2013-08-05 17:05:00,85.0,43.0,-100.00,WSW,239,9.0,18.0,23,0.00,,,0.00,997.000000,,2013-08-05 23:05:00,
2013-08-05 17:14:00,85.0,43.0,-100.00,WSW,239,9.0,18.0,23,0.00,,,0.00,997.000000,,2013-08-05 23:14:00,
2013-08-05 17:15:00,81.0,43.0,-100.00,WSW,250,9.0,17.0,26,0.00,,,0.00,626.000000,,2013-08-05 23:15:00,
2013-08-05 17:46:00,81.0,43.0,-100.00,WSW,250,9.0,17.0,26,0.00,,,0.00,626.000000,,2013-08-05 23:46:00,
2013-08-05 18:01:00,81.0,43.0,-100.00,WSW,250,9.0,17.0,26,0.00,,,0.00,626.000000,,2013-08-06 00:01:00,
2013-08-05 18:46:00,77.0,49.0,-100.00,NNE,27,4.0,17.0,37,0.00,,,0.00,177.000000,,2013-08-06 00:46:00,
2013-08-05 18:57:00,77.0,49.0,-100.00,NNE,27,4.0,17.0,37,0.00,,,0.00,177.000000,,2013-08-06 00:57:00,
2013-08-05 19:14:00,77.0,49.0,-100.00,NNE,27,4.0,17.0,37,0.00,,,0.00,177.000000,,2013-08-06 01:14:00,
2013-08-05 19:52:00,75.0,45.0,-100.00,West,270,11.0,25.0,34,0.00,,,0.00,212.000000,,2013-08-06 01:52:00,
2013-08-05 20:07:00,75.0,45.0,-100.00,West,270,11.0,25.0,34,0.00,,,0.00,212.000000,,2013-08-06 02:07:00,
2013-08-05 20:14:00,75.0,45.0,-100.00,West,270,11.0,25.0,34,0.00,,,0.00,212.000000,,2013-08-06 02:14:00,
2013-08-05 20:15:00,71.0,45.0,-100.00,WSW,249,4.0,15.0,40,0.00,,,0.00,58.000000,,2013-08-06 02:15:00,
2013-08-05 20:49:00,71.0,45.0,-100.00,WSW,249,4.0,15.0,40,0.00,,,0.00,58.000000,,2013-08-06 02:49:00,
2013-08-05 21:01:00,71.0,45.0,-100.00,WSW,249,4.0,15.0,40,0.00,,,0.00,58.000000,,2013-08-06 03:01:00,
2013-08-05 21:45:00,68.0,47.0,-100.00,WNW,303,4.0,7.0,47,0.00,,,0.00,2.000000,,2013-08-06 03:45:00,
2013-08-05 21:52:00,68.0,47.0,-100.00,WNW,303,4.0,7.0,47,0.00,,,0.00,2.000000,,2013-08-06 03:52:00,
2013-08-05 22:01:00,68.0,47.0,-100.00,WNW,303,4.0,7.0,47,0.00,,,0.00,2.000000,,2013-08-06 04:01:00,
2013-08-05 22:11:00,68.0,47.0,-100.00,WNW,303,4.0,7.0,47,0.00,,,0.00,2.000000,,2013-08-06 04:11:00,
2013-08-05 22:44:00,68.0,48.0,-100.00,West,280,0.0,8.0,48,0.00,,,0.00,1.000000,,2013-08-06 04:44:00,
2013-08-05 22:53:00,68.0,48.0,-100.00,West,280,0.0,8.0,48,0.00,,,0.00,1.000000,,2013-08-06 04:53:00,
2013-08-05 23:02:00,68.0,48.0,-100.00,West,280,0.0,8.0,48,0.00,,,0.00,1.000000,,2013-08-06 05:02:00,
2013-08-05 23:11:00,68.0,48.0,-100.00,West,280,0.0,8.0,48,0.00,,,0.00,1.000000,,2013-08-06 05:11:00,
2013-08-05 23:43:00,67.0,48.0,-100.00,SW,226,4.0,6.0,50,0.00,,,0.00,1.000000,,2013-08-06 05:43:00,
2013-08-05 23:53:00,67.0,48.0,-100.00,SW,226,4.0,6.0,50,0.00,,,0.00,1.000000,,2013-08-06 05:53:00,